Time;durP1;ratioP1;P1;durP2;ratioP2;P2;SDS_P1;SDS_P2;PMS_P1;PMS_P2;Temp;Humidity;BMP_temperature;BMP_pressure;BME280_temperature;BME280_humidity;BME280_pressure;Samples;Min_cycle;Max_cycle;Signal;HPM_P1;HPM_P2
2020/12/28 00:00:47;;;;;;;6.05;5.25;;;;;;;;;;5050104;28;20387;-75
2020/12/28 00:03:13;;;;;;;6.68;5.57;;;;;;;;;;5049753;28;20416;-74
2020/12/28 00:05:39;;;;;;;5.60;5.00;;;;;;;;;;5050020;28;20385;-74
2020/12/28 00:08:05;;;;;;;5.75;4.68;;;;;;;;;;5050037;28;20378;-73
2020/12/28 00:10:31;;;;;;;5.50;4.80;;;;;;;;;;5053968;28;20456;-75
2020/12/28 00:12:57;;;;;;;6.03;5.00;;;;;;;;;;5069871;28;20466;-73
2020/12/28 00:15:27;;;;;;;5.97;5.15;;;;;;;;;;5069929;28;20391;-74
2020/12/28 00:17:57;;;;;;;5.55;4.95;;;-0.30;99.90;;;;;;5072090;28;20554;-74
2020/12/28 00:20:25;;;;;;;5.32;4.82;;;;;;;;;;5073732;28;20766;-75
2020/12/28 00:22:51;;;;;;;5.95;5.13;;;;;;;;;;5073538;28;20376;-74
2020/12/28 00:25:22;;;;;;;6.82;5.22;;;1.30;99.90;;;;;;5073674;28;20382;-74
2020/12/28 00:27:48;;;;;;;5.63;5.00;;;1.30;99.90;;;;;;5073511;28;20978;-75
2020/12/28 00:30:14;;;;;;;6.07;5.47;;;1.30;99.90;;;;;;5073581;28;20386;-76
2020/12/28 00:32:40;;;;;;;8.18;6.80;;;;;;;;;;5073126;28;20383;-74
2020/12/28 00:35:07;;;;;;;14.85;11.95;;;1.50;99.90;;;;;;5066864;28;20404;-74
2020/12/28 00:37:33;;;;;;;7.33;5.77;;;;;;;;;;5053296;28;20422;-74
2020/12/28 00:39:59;;;;;;;7.00;5.22;;;;;;;;;;5053493;28;20519;-75
2020/12/28 00:42:25;;;;;;;6.95;5.57;;;;;;;;;;5065435;28;20387;-75
2020/12/28 00:44:51;;;;;;;6.30;5.70;;;1.30;99.90;;;;;;5073424;28;20433;-75
2020/12/28 00:47:17;;;;;;;6.70;5.60;;;1.30;99.90;;;;;;5073138;28;20387;-74
2020/12/28 00:49:43;;;;;;;6.55;5.45;;;1.40;99.90;;;;;;5073135;28;20459;-74
2020/12/28 00:52:09;;;;;;;6.53;5.28;;;1.10;99.90;;;;;;5073014;28;20468;-74
2020/12/28 00:54:34;;;;;;;5.73;5.20;;;1.30;99.90;;;;;;5053144;28;20476;-74
2020/12/28 00:57:01;;;;;;;6.30;5.07;;;1.40;99.90;;;;;;5052986;28;20422;-75
2020/12/28 00:59:27;;;;;;;6.03;5.43;;;1.20;99.90;;;;;;5053006;28;20381;-74
2020/12/28 01:01:56;;;;;;;6.93;5.53;;;;;;;;;;5052885;28;20436;-75
2020/12/28 01:04:22;;;;;;;6.57;5.45;;;;;;;;;;5053018;28;20378;-75
2020/12/28 01:06:48;;;;;;;6.38;5.60;;;;;;;;;;5052927;28;20401;-74
2020/12/28 01:09:14;;;;;;;6.65;5.80;;;;;;;;;;5056852;28;20384;-73
2020/12/28 01:11:41;;;;;;;5.97;5.38;;;1.10;99.90;;;;;;5063737;28;20473;-73
2020/12/28 01:14:07;;;;;;;7.13;5.75;;;1.20;99.90;;;;;;5064184;28;20398;-74
2020/12/28 01:16:34;;;;;;;6.60;5.90;;;;;;;;;;5062006;28;21782;-73
2020/12/28 01:19:00;;;;;;;6.55;5.63;;;;;;;;;;5063615;28;20462;-73
2020/12/28 01:21:26;;;;;;;6.80;6.10;;;;;;;;;;5063267;28;20383;-75
2020/12/28 01:23:53;;;;;;;6.72;5.85;;;;;;;;;;5061815;28;20420;-75
2020/12/28 01:26:19;;;;;;;7.47;5.53;;;;;;;;;;5066379;28;20388;-75
2020/12/28 01:28:45;;;;;;;6.82;6.00;;;1.30;99.90;;;;;;5060404;28;20381;-73
2020/12/28 01:31:11;;;;;;;6.20;5.60;;;;;;;;;;5065935;28;20388;-73
2020/12/28 01:33:37;;;;;;;6.50;5.22;;;;;;;;;;5068018;28;20376;-73
2020/12/28 01:36:03;;;;;;;6.03;5.43;;;2.90;99.90;;;;;;5060657;28;20482;-73
2020/12/28 01:38:29;;;;;;;6.68;5.20;;;0.80;99.90;;;;;;5066311;28;20475;-74
2020/12/28 01:40:57;;;;;;;5.97;5.38;;;1.20;99.90;;;;;;5061638;28;20466;-73
2020/12/28 01:43:24;;;;;;;5.68;5.05;;;1.30;99.90;;;;;;5063732;28;20850;-75
2020/12/28 01:45:50;;;;;;;5.60;4.70;;;1.60;99.90;;;;;;5062143;28;20397;-74
2020/12/28 01:48:15;;;;;;;4.95;4.28;;;1.60;99.90;;;;;;5062126;28;20455;-74
2020/12/28 01:50:41;;;;;;;5.03;3.90;;;;;;;;;;5062257;28;20408;-74
2020/12/28 01:53:08;;;;;;;4.53;3.80;;;;;;;;;;5063426;28;20387;-74
2020/12/28 01:55:34;;;;;;;4.10;3.70;;;2.50;99.90;;;;;;5060842;28;20384;-74
2020/12/28 01:58:00;;;;;;;4.25;3.83;;;2.00;99.90;;;;;;5062207;28;20402;-74
2020/12/28 02:00:25;;;;;;;4.53;3.90;;;;;;;;;;5065176;28;20981;-74
2020/12/28 02:02:51;;;;;;;5.35;4.22;;;;;;;;;;5061180;28;20386;-75
2020/12/28 02:05:18;;;;;;;5.40;4.35;;;;;;;;;;5065270;28;20388;-74
2020/12/28 02:07:45;;;;;;;7.65;5.53;;;1.50;99.90;;;;;;5060304;28;20388;-74
2020/12/28 02:10:11;;;;;;;6.60;5.10;;;1.90;99.90;;;;;;5065563;28;20931;-74
2020/12/28 02:12:37;;;;;;;6.28;5.35;;;1.50;99.90;;;;;;5066625;28;20434;-74
2020/12/28 02:15:04;;;;;;;6.82;5.18;;;;;;;;;;5060146;28;20393;-74
2020/12/28 02:17:30;;;;;;;7.20;5.40;;;;;;;;;;5065712;28;20403;-74
2020/12/28 02:19:56;;;;;;;5.40;4.30;;;;;;;;;;5061626;28;20441;-75
2020/12/28 02:22:22;;;;;;;5.28;4.38;;;;;;;;;;5062808;28;20386;-74
2020/12/28 02:24:47;;;;;;;4.78;4.28;;;1.80;99.90;;;;;;5062359;28;20763;-74
2020/12/28 02:27:13;;;;;;;7.53;5.10;;;1.70;99.90;;;;;;5064138;28;20441;-75
2020/12/28 02:29:38;;;;;;;6.65;4.97;;;2.40;99.90;;;;;;5061423;28;20375;-75
2020/12/28 02:32:04;;;;;;;5.55;4.75;;;;;;;;;;5062733;28;20384;-74
2020/12/28 02:34:30;;;;;;;4.60;4.00;;;;;;;;;;5059911;28;20525;-75
2020/12/28 02:36:56;;;;;;;10.10;6.70;;;;;;;;;;5061552;28;20406;-75
2020/12/28 02:39:24;;;;;;;11.63;6.75;;;1.80;99.90;;;;;;5063300;28;20382;-74
2020/12/28 02:41:50;;;;;;;6.00;5.38;;;;;;;;;;5060324;28;20381;-74
2020/12/28 02:44:15;;;;;;;6.13;5.53;;;1.60;99.90;;;;;;5063636;28;20468;-74
2020/12/28 02:46:41;;;;;;;5.68;5.07;;;1.90;99.90;;;;;;5059283;28;20393;-74
2020/12/28 02:49:07;;;;;;;5.80;5.13;;;;;;;;;;5064145;28;20385;-73
2020/12/28 02:51:33;;;;;;;5.60;4.78;;;;;;;;;;5065245;28;20470;-74
2020/12/28 02:53:59;;;;;;;5.70;5.10;;;;;;;;;;5059885;28;20384;-75
2020/12/28 02:56:25;;;;;;;5.75;4.82;;;;;;;;;;5061777;28;20404;-75
2020/12/28 02:58:53;;;;;;;5.85;5.25;;;;;;;;;;5061583;28;20372;-75
2020/12/28 03:01:19;;;;;;;5.82;5.22;;;;;;;;;;5062536;28;20459;-75
2020/12/28 03:03:44;;;;;;;6.40;5.55;;;2.00;99.90;;;;;;5060923;28;20462;-75
2020/12/28 03:06:11;;;;;;;5.43;4.90;;;;;;;;;;5062540;28;20387;-74
2020/12/28 03:08:37;;;;;;;5.78;5.18;;;;;;;;;;5060261;28;20387;-74
2020/12/28 03:11:02;;;;;;;6.47;5.50;;;1.60;99.90;;;;;;5062090;28;20380;-75
2020/12/28 03:13:28;;;;;;;5.95;5.32;;;1.70;99.90;;;;;;5064892;28;20392;-75
2020/12/28 03:15:53;;;;;;;5.90;5.15;;;0.50;99.90;;;;;;5070524;28;20396;-74
2020/12/28 03:18:19;;;;;;;6.85;5.60;;;;;;;;;;5063459;28;20401;-73
2020/12/28 03:20:45;;;;;;;5.65;4.97;;;;;;;;;;5059377;28;20378;-74
2020/12/28 03:23:11;;;;;;;5.80;5.20;;;;;;;;;;5063503;28;20901;-74
2020/12/28 03:25:37;;;;;;;6.20;5.40;;;1.50;99.90;;;;;;5063337;28;20848;-74
2020/12/28 03:28:02;;;;;;;6.20;4.93;;;1.60;99.90;;;;;;5063327;28;20859;-75
2020/12/28 03:30:28;;;;;;;5.83;5.00;;;1.80;99.90;;;;;;5063853;28;20998;-75
2020/12/28 03:32:54;;;;;;;5.97;5.23;;;;;;;;;;5060455;28;20388;-75
2020/12/28 03:35:20;;;;;;;5.80;5.20;;;;;;;;;;5061654;28;20383;-75
2020/12/28 03:37:46;;;;;;;6.07;5.32;;;;;;;;;;5060969;28;20400;-75
2020/12/28 03:40:12;;;;;;;5.82;5.22;;;;;;;;;;5061964;28;20379;-75
2020/12/28 03:42:37;;;;;;;5.70;5.10;;;1.50;99.90;;;;;;5059496;28;20376;-75
2020/12/28 03:45:03;;;;;;;6.37;5.40;;;1.70;99.90;;;;;;5061561;28;20847;-75
2020/12/28 03:47:29;;;;;;;6.90;5.80;;;1.50;99.90;;;;;;5063273;28;20882;-75
2020/12/28 03:49:55;;;;;;;6.13;5.32;;;;;;;;;;5060348;28;20466;-75
2020/12/28 03:52:20;;;;;;;6.25;5.65;;;;;;;;;;5066167;28;20385;-73
2020/12/28 03:54:47;;;;;;;6.57;5.43;;;;;;;;;;5063140;28;20400;-73
2020/12/28 03:57:13;;;;;;;6.13;5.35;;;;;;;;;;5065940;28;20432;-73
2020/12/28 03:59:39;;;;;;;6.28;5.28;;;;;;;;;;5069767;28;20372;-73
2020/12/28 04:02:05;;;;;;;6.10;5.18;;;;;;;;;;5062738;28;20377;-74
2020/12/28 04:04:31;;;;;;;5.45;4.90;;;2.20;99.90;;;;;;5067733;28;20382;-73
2020/12/28 04:06:57;;;;;;;6.73;4.90;;;;;;;;;;5063491;28;20379;-74
2020/12/28 04:09:22;;;;;;;6.35;4.43;;;;;;;;;;5065436;28;21013;-74
2020/12/28 04:11:48;;;;;;;4.93;4.30;;;1.60;99.90;;;;;;5064831;28;20406;-74
2020/12/28 04:14:14;;;;;;;5.00;4.50;;;1.50;99.90;;;;;;5063931;28;20444;-74
2020/12/28 04:16:39;;;;;;;5.10;4.10;;;1.40;99.90;;;;;;5070441;28;20441;-74
2020/12/28 04:19:05;;;;;;;5.33;4.50;;;;;;;;;;5065365;28;20410;-73
2020/12/28 04:21:31;;;;;;;5.15;4.38;;;;;;;;;;5066535;28;20404;-72
2020/12/28 04:23:57;;;;;;;5.30;4.13;;;;;;;;;;5064239;28;20389;-74
2020/12/28 04:26:23;;;;;;;4.80;4.30;;;;;;;;;;5067617;28;20469;-74
2020/12/28 04:28:49;;;;;;;5.30;4.30;;;;;;;;;;5063499;28;20385;-74
2020/12/28 04:31:15;;;;;;;5.20;4.43;;;;;;;;;;5067062;28;20446;-73
2020/12/28 04:33:41;;;;;;;6.25;4.20;;;;;;;;;;5061660;28;20883;-74
2020/12/28 04:36:07;;;;;;;4.78;4.28;;;;;;;;;;5053792;28;20385;-75
2020/12/28 04:38:33;;;;;;;5.28;4.50;;;;;;;;;;5053392;28;20385;-74
2020/12/28 04:40:59;;;;;;;5.28;4.50;;;;;;;;;;5055108;28;20369;-74
2020/12/28 04:43:26;;;;;;;5.20;4.70;;;;;;;;;;5073635;28;20864;-74
2020/12/28 04:46:02;;;;;;;5.53;4.65;;;1.50;99.90;;;;;;5073618;28;20438;-75
2020/12/28 04:48:30;;;;;;;5.63;4.68;;;1.50;99.90;;;;;;5073359;28;20467;-73
2020/12/28 04:50:57;;;;;;;6.30;4.57;;;;;;;;;;5073147;28;20470;-76
2020/12/28 04:53:23;;;;;;;6.35;5.10;;;;;;;;;;5073085;28;20372;-77
2020/12/28 04:55:49;;;;;;;5.80;4.70;;;1.50;99.90;;;;;;5073099;28;20376;-75
2020/12/28 04:58:16;;;;;;;5.30;4.80;;;;;;;;;;5072933;28;20413;-75
2020/12/28 05:00:42;;;;;;;6.88;4.90;;;;;;;;;;5073031;28;20384;-76
2020/12/28 05:03:08;;;;;;;5.75;4.80;;;;;;;;;;5071905;28;20403;-74
2020/12/28 05:05:46;;;;;;;5.77;4.80;;;1.40;99.90;;;;;;5072897;28;20738;-74
2020/12/28 05:08:12;;;;;;;5.07;4.53;;;;;;;;;;5072927;28;20380;-75
2020/12/28 05:10:38;;;;;;;5.55;4.55;;;;;;;;;;5072928;28;20383;-75
2020/12/28 05:13:10;;;;;;;5.32;4.80;;;;;;;;;;5072587;28;20437;-75
2020/12/28 05:15:49;;;;;;;5.45;4.90;;;;;;;;;;5072868;28;20392;-74
2020/12/28 05:18:16;;;;;;;5.53;5.00;;;1.50;99.90;;;;;;5072740;28;20434;-74
2020/12/28 05:20:43;;;;;;;6.00;5.30;;;;;;;;;;5072843;28;20387;-75
2020/12/28 05:23:09;;;;;;;6.53;5.50;;;;;;;;;;5072531;28;20459;-74
2020/12/28 05:25:35;;;;;;;6.22;5.45;;;1.30;99.90;;;;;;5072607;28;20521;-75
2020/12/28 05:28:03;;;;;;;6.10;5.50;;;;;;;;;;5072405;28;20946;-75
2020/12/28 05:30:31;;;;;;;7.43;6.20;;;1.00;99.90;;;;;;5072528;28;20470;-75
2020/12/28 05:33:01;;;;;;;6.57;5.53;;;;;;;;;;5072304;28;20399;-75
2020/12/28 05:35:28;;;;;;;6.63;5.93;;;1.20;99.90;;;;;;5063367;28;20389;-75
2020/12/28 05:37:54;;;;;;;6.30;5.70;;;1.20;99.90;;;;;;5052100;28;20965;-76
2020/12/28 05:40:22;;;;;;;6.90;6.18;;;1.20;99.90;;;;;;5052308;28;20415;-75
2020/12/28 05:42:50;;;;;;;7.40;6.07;;;;;;;;;;5067952;28;20388;-75
2020/12/28 05:45:15;;;;;;;6.68;5.90;;;1.30;99.90;;;;;;5072399;28;20389;-74
2020/12/28 05:47:42;;;;;;;7.10;6.03;;;;;;;;;;5071977;28;20609;-74
2020/12/28 05:50:09;;;;;;;6.85;6.05;;;;;;;;;;5072138;28;20386;-74
2020/12/28 05:52:45;;;;;;;8.10;6.15;;;1.10;99.90;;;;;;5072060;28;20404;-76
2020/12/28 05:55:12;;;;;;;7.85;6.70;;;;;;;;;;5071982;28;20478;-75
2020/12/28 05:57:38;;;;;;;8.13;6.65;;;1.30;99.90;;;;;;5071764;28;20395;-74
2020/12/28 06:00:04;;;;;;;6.97;6.17;;;1.10;99.90;;;;;;5071812;28;20426;-75
2020/12/28 06:02:37;;;;;;;7.07;6.38;;;1.30;99.90;;;;;;5071867;28;20391;-75
2020/12/28 06:05:03;;;;;;;7.35;6.00;;;;;;;;;;5072180;28;20425;-76
2020/12/28 06:07:29;;;;;;;7.30;6.13;;;;;;;;;;5071931;28;20784;-74
2020/12/28 06:09:56;;;;;;;7.30;6.30;;;;;;;;;;5071741;28;20388;-74
2020/12/28 06:12:22;;;;;;;7.78;6.70;;;;;;;;;;5071869;28;20410;-73
2020/12/28 06:14:48;;;;;;;7.15;6.43;;;;;;;;;;5071965;28;20903;-74
2020/12/28 06:17:14;;;;;;;7.70;6.20;;;;;;;;;;5071516;28;20396;-73
2020/12/28 06:19:43;;;;;;;7.43;6.10;;;1.10;99.90;;;;;;5071707;28;20494;-73
2020/12/28 06:22:24;;;;;;;7.68;6.70;;;;;;;;;;5071365;28;20441;-72
2020/12/28 06:25:02;;;;;;;7.70;6.78;;;1.30;99.90;;;;;;5071628;28;20409;-74
2020/12/28 06:27:32;;;;;;;8.57;6.93;;;;;;;;;;5071505;28;20391;-74
2020/12/28 06:30:11;;;;;;;7.88;6.60;;;1.30;99.90;;;;;;5071518;28;20395;-73
2020/12/28 06:32:38;;;;;;;7.40;6.70;;;1.80;99.90;;;;;;5071140;28;20511;-74
2020/12/28 06:35:06;;;;;;;8.43;7.00;;;1.40;99.90;;;;;;5065275;28;20728;-74
2020/12/28 06:37:42;;;;;;;7.72;6.63;;;;;;;;;;5051173;28;20887;-75
2020/12/28 06:40:12;;;;;;;7.68;6.70;;;1.40;99.90;;;;;;5051183;28;20385;-72
2020/12/28 06:42:39;;;;;;;8.07;6.55;;;;;;;;;;5065061;28;20437;-74
2020/12/28 06:45:12;;;;;;;7.57;6.60;;;1.40;99.90;;;;;;5071230;28;20376;-73
2020/12/28 06:47:39;;;;;;;8.52;7.72;;;;;;;;;;5070966;28;20394;-74
2020/12/28 06:50:05;;;;;;;9.75;8.05;;;;;;;;;;5071251;28;20403;-72
2020/12/28 06:52:31;;;;;;;7.57;6.65;;;;;;;;;;5070786;28;20391;-73
2020/12/28 06:55:05;;;;;;;7.10;6.10;;;;;;;;;;5070754;28;20746;-72
2020/12/28 06:57:31;;;;;;;8.32;7.50;;;;;;;;;;5070706;28;20894;-73
2020/12/28 06:59:57;;;;;;;7.15;6.35;;;;;;;;;;5070593;28;20386;-73
2020/12/28 07:02:23;;;;;;;6.35;5.57;;;;;;;;;;5070511;28;20394;-71
2020/12/28 07:04:49;;;;;;;5.40;4.65;;;;;;;;;;5070845;28;20407;-73
2020/12/28 07:07:15;;;;;;;5.70;5.20;;;;;;;;;;5070762;28;20411;-73
2020/12/28 07:09:41;;;;;;;5.72;4.80;;;;;;;;;;5070880;28;20376;-73
2020/12/28 07:12:08;;;;;;;6.47;5.80;;;;;;;;;;5070468;28;20372;-73
2020/12/28 07:14:34;;;;;;;20.65;15.10;;;;;;;;;;5070587;28;20396;-73
2020/12/28 07:17:00;;;;;;;102.72;69.18;;;;;;;;;;5070484;28;20396;-73
2020/12/28 07:19:26;;;;;;;42.42;31.13;;;;;;;;;;5070632;28;20854;-72
2020/12/28 07:21:52;;;;;;;35.70;32.00;;;1.30;99.90;;;;;;5070480;28;20484;-71
2020/12/28 07:24:19;;;;;;;77.70;68.70;;;1.60;99.90;;;;;;5068897;28;20881;-72
2020/12/28 07:26:45;;;;;;;60.53;49.17;;;;;;;;;;5069906;28;20391;-75
2020/12/28 07:29:16;;;;;;;50.42;41.85;;;1.40;99.90;;;;;;5070358;28;20799;-73
2020/12/28 07:31:43;;;;;;;34.58;30.17;;;1.30;99.90;;;;;;5066958;28;20379;-72
2020/12/28 07:34:17;;;;;;;43.23;38.33;;;1.10;99.90;;;;;;5060646;28;20517;-73
2020/12/28 07:36:48;;;;;;;31.15;26.15;;;1.30;99.90;;;;;;5036728;28;20409;-73
2020/12/28 07:39:15;;;;;;;26.90;23.20;;;0.90;99.90;;;;;;5050131;28;20381;-73
2020/12/28 07:41:41;;;;;;;24.00;21.33;;;1.30;99.90;;;;;;5050302;28;20748;-76
2020/12/28 07:44:11;;;;;;;22.70;20.00;;;1.40;99.90;;;;;;5049887;28;20904;-73
2020/12/28 07:47:02;;;;;;;24.63;18.80;;;1.40;99.90;;;;;;5057332;28;20391;-73
2020/12/28 07:49:28;;;;;;;24.45;18.75;;;;;;;;;;5070153;28;20383;-73
2020/12/28 07:52:10;;;;;;;19.98;15.23;;;;;;;;;;5070140;28;20382;-72
2020/12/28 07:54:41;;;;;;;20.55;16.92;;;;;;;;;;5070106;28;20432;-72
2020/12/28 07:57:15;;;;;;;10.13;8.88;;;1.30;99.90;;;;;;5069720;28;20400;-73
2020/12/28 08:00:00;;;;;;;10.77;9.20;;;1.30;99.90;;;;;;5070059;28;20940;-73
2020/12/28 08:02:47;;;;;;;9.07;7.93;;;;;;;;;;5069670;28;20380;-71
2020/12/28 08:05:13;;;;;;;8.57;7.68;;;;;;;;;;5069959;28;20399;-71
2020/12/28 08:07:39;;;;;;;8.85;7.50;;;;;;;;;;5069791;28;20448;-71
2020/12/28 08:10:09;;;;;;;9.73;8.50;;;;;;;;;;5069833;28;20854;-73
2020/12/28 08:12:35;;;;;;;9.97;8.47;;;;;;;;;;5036405;28;20424;-73
2020/12/28 08:15:01;;;;;;;8.02;7.22;;;;;;;;;;5049559;28;20400;-72
2020/12/28 08:17:27;;;;;;;9.60;7.97;;;;;;;;;;5049582;28;20401;-73
2020/12/28 08:20:11;;;;;;;13.93;12.52;;;;;;;;;;5049648;28;20388;-75
2020/12/28 08:22:37;;;;;;;13.45;12.05;;;;;;;;;;5049405;28;20868;-75
2020/12/28 08:25:08;;;;;;;10.77;8.20;;;1.30;99.90;;;;;;5049534;28;20369;-71
2020/12/28 08:27:34;;;;;;;9.32;7.32;;;1.20;99.90;;;;;;5049477;28;20388;-75
2020/12/28 08:30:04;;;;;;;9.73;8.00;;;1.10;99.90;;;;;;5053247;28;20468;-75
2020/12/28 08:32:31;;;;;;;10.93;9.53;;;1.10;99.90;;;;;;5069763;28;20734;-74
2020/12/28 08:35:00;;;;;;;11.70;9.73;;;0.80;99.90;;;;;;5064303;28;20373;-74
2020/12/28 08:37:28;;;;;;;12.25;10.52;;;1.00;99.90;;;;;;5049395;28;20420;-73
2020/12/28 08:39:54;;;;;;;13.27;10.20;;;0.50;99.90;;;;;;5053011;28;20864;-73
2020/12/28 08:42:29;;;;;;;17.90;13.07;;;0.80;99.90;;;;;;5052740;28;20393;-72
2020/12/28 08:44:55;;;;;;;13.88;11.38;;;0.90;99.90;;;;;;5053092;28;20798;-73
2020/12/28 08:47:23;;;;;;;10.17;8.30;;;0.80;99.90;;;;;;5051653;28;20619;-72
2020/12/28 08:49:49;;;;;;;12.68;9.80;;;1.20;99.90;;;;;;5052975;28;20397;-73
2020/12/28 08:52:16;;;;;;;11.70;9.67;;;;;;;;;;5052683;28;20394;-72
2020/12/28 08:54:42;;;;;;;11.00;8.85;;;;;;;;;;5052939;28;20378;-73
2020/12/28 08:57:37;;;;;;;9.75;8.52;;;1.30;99.90;;;;;;5052705;28;20401;-71
2020/12/28 09:00:04;;;;;;;9.70;8.23;;;;;;;;;;5052320;28;20975;-73
2020/12/28 09:02:31;;;;;;;9.63;7.88;;;;;;;;;;5052431;28;20380;-73
2020/12/28 09:04:57;;;;;;;9.73;7.70;;;0.70;99.90;;;;;;5052643;28;20382;-73
2020/12/28 09:07:23;;;;;;;11.68;9.50;;;1.00;99.90;;;;;;5052523;28;20388;-72
2020/12/28 09:09:49;;;;;;;11.48;9.20;;;0.90;99.90;;;;;;5052623;28;20472;-73
2020/12/28 09:12:16;;;;;;;13.13;10.50;;;0.80;99.90;;;;;;5052327;28;20860;-73
2020/12/28 09:14:42;;;;;;;13.47;9.13;;;1.40;99.90;;;;;;5052470;28;20499;-73
2020/12/28 09:17:08;;;;;;;12.48;9.63;;;;;;;;;;5052356;28;20485;-73
2020/12/28 09:19:34;;;;;;;9.83;8.63;;;;;;;;;;5052286;28;20847;-73
2020/12/28 09:22:00;;;;;;;27.23;16.40;;;1.10;99.90;;;;;;5052198;28;20439;-73
2020/12/28 09:24:26;;;;;;;26.83;18.33;;;1.50;99.90;;;;;;5052266;28;20914;-71
2020/12/28 09:26:55;;;;;;;26.52;19.17;;;;;;;;;;5052310;28;20425;-71
2020/12/28 09:29:21;;;;;;;21.08;14.25;;;;;;;;;;5052351;28;20717;-71
2020/12/28 09:31:47;;;;;;;19.88;15.40;;;;;;;;;;5052230;28;20385;-70
2020/12/28 09:34:13;;;;;;;18.55;15.23;;;;;;;;;;5051910;28;20377;-71
2020/12/28 09:36:39;;;;;;;16.87;13.00;;;;;;;;;;5051902;28;20489;-71
2020/12/28 09:39:05;;;;;;;16.45;13.05;;;;;;;;;;5052132;28;20832;-71
2020/12/28 09:41:31;;;;;;;17.63;15.05;;;;;;;;;;5057252;28;20390;-71
2020/12/28 09:43:57;;;;;;;17.80;14.23;;;2.00;99.90;;;;;;5072006;28;20378;-71
2020/12/28 09:46:23;;;;;;;23.03;17.57;;;2.40;99.90;;;;;;5071974;28;20915;-70
2020/12/28 09:48:49;;;;;;;23.05;18.50;;;;;;;;;;5071305;28;20470;-71
2020/12/28 09:51:15;;;;;;;22.88;18.33;;;;;;;;;;5071801;28;20383;-70
2020/12/28 09:53:42;;;;;;;21.85;16.08;;;;;;;;;;5071631;28;20857;-70
2020/12/28 09:56:09;;;;;;;23.67;16.55;;;1.70;99.90;;;;;;5071739;28;20411;-71
2020/12/28 09:58:34;;;;;;;15.63;11.90;;;2.20;99.90;;;;;;5071560;28;20383;-70
2020/12/28 10:01:01;;;;;;;20.07;15.47;;;2.30;99.90;;;;;;5071684;28;20390;-71
2020/12/28 10:03:27;;;;;;;10.70;8.30;;;2.30;99.90;;;;;;5071270;28;20391;-71
2020/12/28 10:05:54;;;;;;;11.38;8.70;;;;;;;;;;5071468;28;20435;-70
2020/12/28 10:08:22;;;;;;;14.50;11.02;;;2.30;99.90;;;;;;5071408;28;20387;-70
2020/12/28 10:10:48;;;;;;;15.68;12.73;;;;;;;;;;5071472;28;20761;-74
2020/12/28 10:13:14;;;;;;;22.40;15.90;;;;;;;;;;5071111;28;20380;-72
2020/12/28 10:15:40;;;;;;;20.40;15.20;;;;;;;;;;5071257;28;20885;-74
2020/12/28 10:18:34;;;;;;;21.83;15.45;;;;;;;;;;5071070;28;20407;-74
2020/12/28 10:21:00;;;;;;;24.52;17.50;;;;;;;;;;5071230;28;20379;-74
2020/12/28 10:23:26;;;;;;;23.08;17.08;;;2.70;99.90;;;;;;5070919;28;20376;-74
2020/12/28 10:25:51;;;;;;;29.10;19.83;;;3.30;99.90;;;;;;5071222;28;20402;-74
2020/12/28 10:28:17;;;;;;;14.95;11.07;;;;;;;;;;5070825;28;20746;-74
2020/12/28 10:30:43;;;;;;;9.43;7.78;;;3.20;99.90;;;;;;5071042;28;20459;-74
2020/12/28 10:33:09;;;;;;;9.27;8.20;;;;;;;;;;5070672;28;20395;-75
2020/12/28 10:35:34;;;;;;;14.10;11.93;;;;;;;;;;5060370;28;21116;-75
2020/12/28 10:38:00;;;;;;;15.48;12.45;;;2.80;99.90;;;;;;5050814;28;20775;-74
2020/12/28 10:40:25;;;;;;;14.37;12.20;;;2.40;99.90;;;;;;5051276;28;20399;-74
2020/12/28 10:42:51;;;;;;;13.70;11.47;;;2.50;99.90;;;;;;5066783;28;20778;-74
2020/12/28 10:45:17;;;;;;;13.37;11.00;;;2.00;99.90;;;;;;5070863;28;20850;-75
2020/12/28 10:47:42;;;;;;;13.73;11.13;;;3.20;99.90;;;;;;5070658;28;20387;-75
2020/12/28 10:50:08;;;;;;;13.87;10.70;;;;;;;;;;5070770;28;20390;-75
2020/12/28 10:52:34;;;;;;;14.38;11.45;;;;;;;;;;5070387;28;20387;-75
2020/12/28 10:54:59;;;;;;;12.88;10.85;;;3.00;99.90;;;;;;5070803;28;20441;-74
2020/12/28 10:57:25;;;;;;;14.07;11.37;;;;;;;;;;5069974;28;20843;-73
2020/12/28 10:59:51;;;;;;;13.13;10.65;;;2.50;99.90;;;;;;5059713;28;20889;-75
2020/12/28 11:02:17;;;;;;;12.23;10.60;;;;;;;;;;5061144;28;20439;-75
2020/12/28 11:04:43;;;;;;;11.73;10.52;;;;;;;;;;5061399;28;20425;-74
2020/12/28 11:07:09;;;;;;;12.35;9.75;;;;;;;;;;5062111;28;20385;-75
2020/12/28 11:09:35;;;;;;;12.52;10.68;;;;;;;;;;5064171;28;20384;-74
2020/12/28 11:12:01;;;;;;;14.18;12.20;;;;;;;;;;5058805;28;20741;-74
2020/12/28 11:14:27;;;;;;;12.88;10.93;;;;;;;;;;5061716;28;20427;-74
2020/12/28 11:16:53;;;;;;;11.82;10.30;;;;;;;;;;5057048;28;20409;-74
2020/12/28 11:19:19;;;;;;;12.00;10.60;;;2.30;99.90;;;;;;5061914;28;20386;-74
2020/12/28 11:21:44;;;;;;;11.70;10.37;;;2.40;99.90;;;;;;5059391;28;20381;-74
2020/12/28 11:24:10;;;;;;;13.80;11.25;;;;;;;;;;5061693;28;20403;-74
2020/12/28 11:26:36;;;;;;;11.35;9.70;;;;;;;;;;5061540;28;20413;-74
2020/12/28 11:29:04;;;;;;;10.38;9.23;;;3.40;99.90;;;;;;5061380;28;20384;-74
2020/12/28 11:31:30;;;;;;;10.73;9.60;;;;;;;;;;5061575;28;20411;-73
2020/12/28 11:33:56;;;;;;;11.13;9.97;;;;;;;;;;5060324;28;21039;-74
2020/12/28 11:36:22;;;;;;;13.95;12.10;;;;;;;;;;5061126;28;20393;-74
2020/12/28 11:38:48;;;;;;;14.20;11.45;;;;;;;;;;5065464;28;20467;-74
2020/12/28 11:41:18;;;;;;;12.50;11.07;;;;;;;;;;5058118;28;20413;-74
2020/12/28 11:43:44;;;;;;;11.97;10.17;;;;;;;;;;5064109;28;20818;-74
2020/12/28 11:46:11;;;;;;;12.98;10.60;;;;;;;;;;5062131;28;20600;-75
2020/12/28 11:48:38;;;;;;;16.98;13.20;;;2.30;99.90;;;;;;5062533;28;20986;-74
2020/12/28 11:51:04;;;;;;;25.27;20.45;;;;;;;;;;5060295;28;20379;-74
2020/12/28 11:53:31;;;;;;;18.98;15.30;;;;;;;;;;5061428;28;20708;-74
2020/12/28 11:58:30;;;;;;;17.00;14.90;;;;;;;;;;5061559;28;20747;-74
2020/12/28 12:00:55;;;;;;;18.52;15.25;;;2.20;99.90;;;;;;5060943;28;20381;-74
2020/12/28 12:03:23;;;;;;;21.87;17.50;;;;;;;;;;5061231;28;20388;-74
2020/12/28 12:05:49;;;;;;;19.33;17.17;;;;;;;;;;5060054;28;20385;-74
2020/12/28 12:08:15;;;;;;;23.25;18.55;;;;;;;;;;5061355;28;20383;-74
2020/12/28 12:10:41;;;;;;;20.35;16.48;;;;;;;;;;5058552;28;20399;-75
2020/12/28 12:13:07;;;;;;;15.15;13.55;;;;;;;;;;5067633;28;20456;-74
2020/12/28 12:15:33;;;;;;;12.38;11.02;;;;;;;;;;5061667;28;20476;-74
2020/12/28 12:17:59;;;;;;;9.98;8.98;;;;;;;;;;5066060;28;20399;-74
2020/12/28 12:20:25;;;;;;;11.05;9.55;;;2.50;99.90;;;;;;5061667;28;20381;-74
2020/12/28 12:22:51;;;;;;;21.52;16.15;;;;;;;;;;5066567;28;20388;-74
2020/12/28 12:25:16;;;;;;;13.80;11.80;;;2.80;99.90;;;;;;5065702;28;20384;-74
2020/12/28 12:27:42;;;;;;;13.13;10.93;;;;;;;;;;5065016;28;20383;-74
2020/12/28 12:30:08;;;;;;;12.70;11.00;;;;;;;;;;5063614;28;20376;-74
2020/12/28 12:32:34;;;;;;;14.35;11.93;;;;;;;;;;5064719;28;20386;-74
2020/12/28 12:35:00;;;;;;;12.57;10.95;;;;;;;;;;5064713;28;20384;-74
2020/12/28 12:37:26;;;;;;;20.70;16.55;;;;;;;;;;5064654;28;20431;-75
2020/12/28 12:39:52;;;;;;;17.90;15.93;;;;;;;;;;5063860;28;20535;-74
2020/12/28 12:42:18;;;;;;;16.45;13.68;;;;;;;;;;5064507;28;20380;-74
2020/12/28 12:44:44;;;;;;;17.13;13.70;;;2.60;99.90;;;;;;5062710;28;20457;-74
2020/12/28 12:47:10;;;;;;;16.95;15.23;;;;;;;;;;5052516;28;20391;-74
2020/12/28 12:49:36;;;;;;;19.00;16.27;;;;;;;;;;5060185;28;20377;-74
2020/12/28 12:52:12;;;;;;;17.80;15.90;;;2.40;99.90;;;;;;5068435;28;20926;-74
2020/12/28 12:54:38;;;;;;;18.25;15.60;;;;;;;;;;5057268;28;20385;-74
2020/12/28 12:57:05;;;;;;;17.77;15.88;;;;;;;;;;5067296;28;20917;-74
2020/12/28 12:59:31;;;;;;;19.35;16.40;;;;;;;;;;5060279;28;20370;-75
2020/12/28 13:01:56;;;;;;;15.98;14.10;;;;;;;;;;5064685;28;20372;-74
2020/12/28 13:04:31;;;;;;;14.80;13.18;;;;;;;;;;5065458;28;20403;-74
2020/12/28 13:07:00;;;;;;;13.27;11.87;;;3.60;99.90;;;;;;5061913;28;20427;-74
2020/12/28 13:09:25;;;;;;;13.85;12.10;;;3.10;99.90;;;;;;5064853;28;20746;-74
2020/12/28 13:11:51;;;;;;;17.27;12.20;;;;;;;;;;5063790;28;20387;-74
2020/12/28 13:14:17;;;;;;;16.23;14.50;;;;;;;;;;5064145;28;20383;-74
2020/12/28 13:16:47;;;;;;;17.38;15.57;;;;;;;;;;5060162;28;20401;-74
2020/12/28 13:19:13;;;;;;;17.13;15.32;;;;;;;;;;5064284;28;20962;-74
2020/12/28 13:21:39;;;;;;;18.40;15.05;;;;;;;;;;5061507;28;20472;-75
2020/12/28 13:24:05;;;;;;;14.88;13.23;;;;;;;;;;5063218;28;20380;-74
2020/12/28 13:26:31;;;;;;;13.80;12.23;;;;;;;;;;5064489;28;20401;-74
2020/12/28 13:28:57;;;;;;;11.10;9.90;;;;;;;;;;5063079;28;20392;-74
2020/12/28 13:31:22;;;;;;;14.32;11.00;;;2.40;99.90;;;;;;5064509;28;20480;-74
2020/12/28 13:33:48;;;;;;;14.05;11.85;;;1.90;99.90;;;;;;5068510;28;20380;-74
2020/12/28 13:36:14;;;;;;;15.23;12.50;;;;;;;;;;5060483;28;20443;-74
2020/12/28 13:38:40;;;;;;;16.30;12.77;;;;;;;;;;5051659;28;20463;-74
2020/12/28 13:41:06;;;;;;;16.90;12.65;;;;;;;;;;5035108;28;20484;-74
2020/12/28 13:43:32;;;;;;;18.85;14.20;;;;;;;;;;5041142;28;20385;-75
2020/12/28 13:45:57;;;;;;;18.75;13.90;;;2.30;99.90;;;;;;5044440;28;20867;-74
2020/12/28 13:48:24;;;;;;;19.43;13.00;;;2.70;99.90;;;;;;5044218;28;20923;-74
2020/12/28 13:50:49;;;;;;;16.47;12.87;;;2.80;99.90;;;;;;5049783;28;20850;-74